Time;durP1;ratioP1;P1;durP2;ratioP2;P2;SDS_P1;SDS_P2;PMS_P1;PMS_P2;Temp;Humidity;BMP_temperature;BMP_pressure;BME280_temperature;BME280_humidity;BME280_pressure;Samples;Min_cycle;Max_cycle;Signal;HPM_P1;HPM_P2
2021/07/26 00:01:57;;;;;;;27.25;21.10;;;;;;;21.43;70.55;95045.44;5000702;28;20089;-68
2021/07/26 00:04:22;;;;;;;17.02;15.32;;;;;;;21.39;70.38;95045.41;5010346;28;20050;-68
2021/07/26 00:06:48;;;;;;;13.93;12.73;;;;;;;21.39;70.54;95044.66;5010738;28;20113;-67
2021/07/26 00:09:13;;;;;;;16.48;14.93;;;;;;;21.37;70.51;95053.16;5012399;28;20119;-68
2021/07/26 00:11:39;;;;;;;15.80;14.27;;;;;;;21.36;70.46;95050.81;5009292;28;20684;-67
2021/07/26 00:14:04;;;;;;;14.20;12.82;;;;;;;21.33;70.53;95046.16;5010063;28;20044;-67
2021/07/26 00:16:30;;;;;;;13.07;11.98;;;;;;;21.24;70.47;95041.03;4994138;28;20070;-66
2021/07/26 00:18:55;;;;;;;15.55;13.50;;;;;;;21.29;70.65;95052.28;4990700;28;20030;-68
2021/07/26 00:21:20;;;;;;;13.95;12.68;;;;;;;21.28;70.71;95050.72;4992688;28;20018;-67
2021/07/26 00:23:46;;;;;;;14.00;12.68;;;;;;;21.23;70.27;95053.78;4990578;28;20523;-68
2021/07/26 00:26:11;;;;;;;20.33;18.13;;;;;;;21.19;70.93;95058.41;4990589;28;20555;-65
2021/07/26 00:28:37;;;;;;;31.83;21.15;;;;;;;21.21;70.95;95050.66;4989877;28;20034;-66
2021/07/26 00:31:02;;;;;;;26.05;19.10;;;;;;;21.33;70.93;95052.34;4996298;28;20105;-66
2021/07/26 00:36:29;;;;;;;14.20;12.87;;;;;;;21.48;70.58;95042.41;4971799;28;20043;-66
2021/07/26 00:38:54;;;;;;;19.88;17.17;;;;;;;21.62;70.13;95047.91;4989065;28;20270;-66
2021/07/26 00:41:22;;;;;;;17.52;15.82;;;;;;;21.64;69.99;95040.19;4975726;28;20075;-67
2021/07/26 00:43:48;;;;;;;13.27;12.00;;;;;;;21.75;69.27;95038.34;4970593;28;20029;-66
2021/07/26 00:46:13;;;;;;;25.52;16.05;;;;;;;21.76;69.23;95031.75;4970438;28;20134;-67
2021/07/26 00:48:39;;;;;;;23.80;18.20;;;;;;;21.84;68.95;95031.78;4972919;28;20027;-66
2021/07/26 00:51:05;;;;;;;16.10;14.63;;;;;;;21.89;68.62;95036.84;4990256;28;20045;-66
2021/07/26 00:53:31;;;;;;;18.52;16.80;;;;;;;21.86;68.40;95029.50;4989802;28;20050;-65
2021/07/26 00:55:57;;;;;;;24.40;18.23;;;;;;;21.84;68.35;95029.88;4990207;28;20051;-66
2021/07/26 00:58:22;;;;;;;20.83;15.32;;;;;;;21.97;68.40;95043.88;4988872;28;20050;-66
2021/07/26 01:00:48;;;;;;;16.13;14.32;;;;;;;21.96;68.30;95039.63;5003766;28;20034;-66
2021/07/26 01:03:13;;;;;;;12.20;11.05;;;;;;;21.94;67.90;95036.50;4972035;28;20049;-66
2021/07/26 01:05:39;;;;;;;12.63;11.43;;;;;;;21.98;68.04;95037.28;4986303;28;20042;-66
2021/07/26 01:08:04;;;;;;;10.93;9.93;;;;;;;22.00;67.76;95040.38;4989688;28;20045;-66
2021/07/26 01:10:30;;;;;;;10.52;9.63;;;;;;;22.08;67.97;95042.00;4983536;28;20038;-66
2021/07/26 01:12:55;;;;;;;10.95;9.95;;;;;;;22.12;67.61;95034.69;4970088;28;20077;-66
2021/07/26 01:15:21;;;;;;;11.45;10.45;;;;;;;22.13;67.68;95038.94;4971988;28;20034;-65
2021/07/26 01:18:23;;;;;;;12.38;11.32;;;;;;;22.16;67.43;95040.91;4970226;28;20042;-67
2021/07/26 01:20:52;;;;;;;10.75;9.80;;;;;;;22.13;67.44;95038.16;4970873;28;20078;-67
2021/07/26 01:23:18;;;;;;;10.85;9.95;;;;;;;22.10;67.33;95039.66;4997809;28;20046;-66
2021/07/26 01:25:43;;;;;;;12.90;9.50;;;;;;;22.22;67.22;95052.16;4981372;28;20069;-66
2021/07/26 01:28:12;;;;;;;11.30;10.30;;;;;;;22.24;66.85;95042.47;4970472;28;20041;-66
2021/07/26 01:30:37;;;;;;;13.02;11.95;;;;;;;22.30;66.58;95051.78;4966198;28;20393;-66
2021/07/26 01:33:02;;;;;;;12.98;11.88;;;;;;;22.21;66.63;95023.47;4982937;28;20043;-66
2021/07/26 01:35:28;;;;;;;13.90;12.30;;;;;;;22.22;66.24;95025.84;4984483;28;20042;-66
2021/07/26 01:37:53;;;;;;;11.13;10.13;;;;;;;22.24;66.48;95034.34;4980013;28;20150;-66
2021/07/26 01:40:18;;;;;;;12.70;10.77;;;;;;;22.26;66.16;95032.03;4970312;28;20042;-66
2021/07/26 01:42:44;;;;;;;12.40;11.13;;;;;;;22.18;66.39;95016.13;4969993;28;20437;-66
2021/07/26 01:45:10;;;;;;;12.05;10.80;;;;;;;22.20;66.76;95025.41;4990923;28;20034;-66
2021/07/26 01:47:50;;;;;;;10.60;9.80;;;;;;;22.24;65.95;95023.50;4972733;28;20039;-66
2021/07/26 01:50:19;;;;;;;11.45;10.15;;;;;;;22.28;66.28;95029.72;4969995;28;20042;-66
2021/07/26 01:52:46;;;;;;;13.00;11.68;;;;;;;22.20;66.14;95011.88;4977985;28;20054;-66
2021/07/26 01:55:12;;;;;;;12.55;11.50;;;;;;;22.22;66.12;95025.06;4989301;28;20042;-65
2021/07/26 01:57:38;;;;;;;11.15;10.18;;;;;;;22.20;66.24;95025.41;4991234;28;20034;-66
2021/07/26 02:00:04;;;;;;;9.43;8.52;;;;;;;22.15;66.33;95014.19;4969913;28;20034;-67
2021/07/26 02:02:31;;;;;;;9.82;8.90;;;;;;;22.22;66.18;95017.69;5001799;28;20034;-66
2021/07/26 02:04:58;;;;;;;9.93;8.95;;;;;;;22.17;66.11;95020.78;5007275;28;20041;-66
2021/07/26 02:07:24;;;;;;;11.25;10.23;;;;;;;22.19;65.77;95017.69;5008865;28;20701;-66
2021/07/26 02:09:49;;;;;;;10.52;8.68;;;;;;;22.12;66.09;95002.19;5008751;28;20041;-65
2021/07/26 02:12:14;;;;;;;9.52;8.77;;;;;;;22.13;66.00;95011.84;5010333;28;20022;-67
2021/07/26 02:14:40;;;;;;;12.10;10.98;;;;;;;22.08;65.88;95004.06;5007457;28;20076;-66
2021/07/26 02:17:06;;;;;;;9.35;8.65;;;;;;;22.01;66.13;94996.69;4979715;28;20121;-66
2021/07/26 02:19:32;;;;;;;10.13;9.23;;;;;;;21.93;66.24;94988.91;4975210;28;20050;-66
2021/07/26 02:21:57;;;;;;;13.52;12.27;;;;;;;21.87;66.02;94985.03;4989340;28;20044;-66
2021/07/26 02:24:22;;;;;;;11.52;10.35;;;;;;;21.93;66.20;94988.91;4975238;28;20154;-66
2021/07/26 02:26:48;;;;;;;13.45;12.10;;;;;;;22.01;66.48;95004.03;4990442;28;20039;-65
2021/07/26 02:29:13;;;;;;;13.82;12.52;;;;;;;21.98;66.61;95007.50;4991852;28;20555;-66
2021/07/26 02:31:38;;;;;;;14.23;12.82;;;;;;;21.87;66.38;94993.91;4992732;28;20066;-66
2021/07/26 02:34:04;;;;;;;10.95;10.00;;;;;;;21.94;66.53;95004.78;4992511;28;20034;-66
2021/07/26 02:36:29;;;;;;;11.98;10.98;;;;;;;21.91;66.74;95013.66;4994738;28;20039;-67
2021/07/26 02:38:55;;;;;;;11.63;10.52;;;;;;;21.88;66.53;95010.94;4993034;28;20038;-66
2021/07/26 02:41:20;;;;;;;9.40;8.70;;;;;;;21.86;66.78;95016.75;4991694;28;20038;-66
2021/07/26 02:43:45;;;;;;;11.98;10.88;;;;;;;21.93;66.58;95016.00;4991268;28;20444;-66
2021/07/26 02:46:11;;;;;;;13.45;12.15;;;;;;;21.90;66.04;95024.84;4992405;28;20038;-66
2021/07/26 02:48:37;;;;;;;11.63;10.63;;;;;;;21.86;66.37;95032.22;4979515;28;20034;-66
2021/07/26 02:51:03;;;;;;;12.50;9.52;;;;;;;21.85;66.74;95036.06;4991715;28;20031;-66
2021/07/26 02:53:29;;;;;;;9.93;8.93;;;;;;;21.87;66.82;95036.47;4991302;28;20619;-66
2021/07/26 02:55:54;;;;;;;10.80;9.70;;;;;;;21.87;66.81;95039.19;5007112;28;20515;-66
2021/07/26 02:58:22;;;;;;;8.85;8.05;;;;;;;21.86;66.42;95030.28;4992461;28;20038;-66
2021/07/26 03:00:48;;;;;;;9.57;8.68;;;;;;;21.92;66.46;95039.59;4992222;28;20029;-67
2021/07/26 03:03:13;;;;;;;11.57;8.57;;;;;;;21.96;66.51;95055.88;4993677;28;20030;-67
2021/07/26 03:05:38;;;;;;;8.15;7.45;;;;;;;21.98;66.42;95056.25;4976494;28;20039;-65
2021/07/26 03:08:04;;;;;;;9.30;7.80;;;;;;;21.96;65.84;95053.94;4973035;28;20673;-67
2021/07/26 03:10:29;;;;;;;12.43;7.30;;;;;;;21.96;65.70;95051.22;4978954;28;20042;-66
2021/07/26 03:12:55;;;;;;;11.15;7.90;;;;;;;22.08;65.29;95052.06;4991960;28;20365;-66
2021/07/26 03:15:21;;;;;;;9.90;8.90;;;;;;;22.01;65.03;95042.75;4994127;28;20026;-66
2021/07/26 03:17:47;;;;;;;9.38;6.63;;;;;;;21.98;65.43;95046.19;5000253;28;20140;-66
2021/07/26 03:20:13;;;;;;;7.15;6.65;;;;;;;22.08;65.20;95060.19;5011036;28;20697;-67
2021/07/26 03:22:57;;;;;;;7.90;7.30;;;;;;;22.05;65.34;95064.41;5011216;28;20040;-66
2021/07/26 03:25:23;;;;;;;10.05;6.80;;;;;;;22.03;65.14;95064.78;5011523;28;20089;-67
2021/07/26 03:27:48;;;;;;;7.20;6.70;;;;;;;21.98;64.75;95059.72;5011598;28;20144;-66
2021/07/26 03:30:15;;;;;;;7.13;6.47;;;;;;;21.92;64.94;95052.34;5013354;28;20081;-66
2021/07/26 03:32:41;;;;;;;7.25;6.72;;;;;;;22.00;64.82;95073.66;4991956;28;20050;-66
2021/07/26 03:35:07;;;;;;;7.38;6.50;;;;;;;21.91;65.36;95067.06;5006827;28;20030;-66
2021/07/26 03:37:32;;;;;;;7.40;6.85;;;;;;;21.84;65.17;95062.34;4992488;28;20042;-67
2021/07/26 03:39:57;;;;;;;10.40;9.43;;;;;;;21.78;65.01;95061.16;4992369;28;20045;-66
2021/07/26 03:42:23;;;;;;;12.15;7.93;;;;;;;21.79;65.41;95082.44;4992645;28;20026;-66
2021/07/26 03:44:48;;;;;;;8.63;7.93;;;;;;;21.78;65.32;95080.13;4992189;28;20443;-67
2021/07/26 03:47:13;;;;;;;10.10;9.27;;;;;;;21.72;65.43;95076.22;4995028;28;20527;-67
2021/07/26 03:49:39;;;;;;;9.02;8.20;;;;;;;21.50;65.93;95078.78;5003093;28;20705;-66
2021/07/26 03:52:04;;;;;;;8.85;7.95;;;;;;;21.55;66.13;95064.13;5011045;28;20096;-66
2021/07/26 03:54:29;;;;;;;6.95;6.13;;;;;;;21.28;66.88;95049.94;5012515;28;20053;-66
2021/07/26 03:56:58;;;;;;;7.10;6.40;;;;;;;21.28;66.62;95055.34;5010964;28;20530;-66
2021/07/26 03:59:24;;;;;;;7.68;6.97;;;;;;;21.51;66.31;95058.66;5011026;28;20077;-66
2021/07/26 04:01:54;;;;;;;7.95;7.25;;;;;;;21.64;66.42;95064.53;4991985;28;20134;-66
2021/07/26 04:04:19;;;;;;;6.47;6.03;;;;;;;21.74;65.98;95053.00;4990735;28;20416;-66
2021/07/26 04:06:49;;;;;;;7.78;7.18;;;;;;;21.82;65.50;95040.31;4991333;28;20027;-66
2021/07/26 04:09:14;;;;;;;7.88;7.18;;;;;;;21.93;65.05;95059.31;4992993;28;20040;-66
2021/07/26 04:11:40;;;;;;;9.00;8.20;;;;;;;22.15;64.88;95063.72;4991373;28;20039;-66
2021/07/26 04:14:08;;;;;;;8.05;7.43;;;;;;;22.22;64.82;95052.16;4990716;28;20045;-67
2021/07/26 04:16:33;;;;;;;11.43;10.32;;;;;;;22.24;64.73;95056.03;4990528;28;20570;-67
2021/07/26 04:19:00;;;;;;;9.70;8.95;;;;;;;22.41;64.39;95064.59;4988851;28;20117;-66
2021/07/26 04:21:30;;;;;;;8.23;7.18;;;;;;;22.49;64.25;95058.06;4973503;28;20536;-67
2021/07/26 04:23:56;;;;;;;8.07;7.35;;;;;;;22.40;64.52;95044.06;4971059;28;20504;-66
2021/07/26 04:26:22;;;;;;;7.35;6.63;;;;;;;22.51;63.89;95047.59;4984720;28;20026;-65
2021/07/26 04:28:47;;;;;;;7.30;6.70;;;;;;;22.61;64.04;95057.69;4990719;28;20084;-65
2021/07/26 04:31:12;;;;;;;9.15;7.93;;;;;;;22.68;63.82;95048.81;4990372;28;20503;-66
2021/07/26 04:33:38;;;;;;;7.07;5.90;;;;;;;22.79;63.41;95060.47;4991986;28;20026;-67
2021/07/26 04:36:04;;;;;;;6.82;6.13;;;;;;;22.77;63.67;95058.13;4990623;28;20050;-66
2021/07/26 04:38:30;;;;;;;8.23;7.45;;;;;;;22.92;62.97;95075.22;4990952;28;20039;-66
2021/07/26 04:40:55;;;;;;;7.10;6.40;;;;;;;22.91;63.48;95070.97;4990838;28;20045;-65
2021/07/26 04:43:21;;;;;;;10.77;6.78;;;;;;;22.91;63.08;95070.19;4989767;28;20097;-65
2021/07/26 04:45:46;;;;;;;6.75;5.95;;;;;;;22.93;62.65;95062.44;4989342;28;20050;-65
2021/07/26 04:48:11;;;;;;;6.85;6.35;;;;;;;23.02;62.74;95073.69;4992203;28;20026;-66
2021/07/26 04:50:37;;;;;;;7.88;6.13;;;;;;;22.99;62.60;95074.50;4990301;28;20133;-62
2021/07/26 04:53:02;;;;;;;7.57;6.43;;;;;;;22.84;61.86;95073.66;4989845;28;20081;-63
2021/07/26 04:55:27;;;;;;;7.10;6.47;;;;;;;22.86;61.74;95082.16;4988684;28;20077;-63
2021/07/26 04:57:53;;;;;;;9.85;5.88;;;;;;;22.76;62.19;95062.00;4990684;28;20034;-70
2021/07/26 05:00:18;;;;;;;6.30;5.80;;;;;;;22.89;62.18;95073.31;4990136;28;20030;-70
2021/07/26 05:02:44;;;;;;;7.43;6.72;;;;;;;23.00;62.08;95084.19;4988236;28;20048;-70
2021/07/26 05:05:10;;;;;;;6.22;5.75;;;;;;;23.09;62.06;95100.88;4990186;28;20117;-70
2021/07/26 05:07:35;;;;;;;6.60;5.60;;;;;;;23.07;61.99;95100.44;4990596;28;20038;-70
2021/07/26 05:10:00;;;;;;;6.18;5.53;;;;;;;23.09;62.02;95093.50;4990737;28;20041;-71
2021/07/26 05:12:26;;;;;;;7.63;5.05;;;;;;;23.20;61.48;95098.94;4992254;28;20435;-71
2021/07/26 05:14:52;;;;;;;6.00;5.45;;;;;;;23.06;60.95;95077.97;4990309;28;20058;-71
2021/07/26 05:17:26;;;;;;;5.90;5.40;;;;;;;23.25;60.87;95084.22;4989566;28;20364;-70
2021/07/26 05:19:52;;;;;;;5.22;4.85;;;;;;;23.45;60.57;95098.19;4989860;28;20039;-71
2021/07/26 05:22:18;;;;;;;7.00;5.10;;;;;;;23.61;60.20;95101.28;4989516;28;20365;-71
2021/07/26 05:24:43;;;;;;;7.97;5.35;;;;;;;23.25;59.81;95049.72;4991771;28;20096;-71
2021/07/26 05:27:09;;;;;;;5.55;5.15;;;;;;;23.76;59.65;95108.28;4989597;28;20040;-70
2021/07/26 05:29:34;;;;;;;7.03;5.07;;;;;;;23.81;59.70;95110.63;4975054;28;20492;-71
2021/07/26 05:32:01;;;;;;;5.68;4.32;;;;;;;23.83;59.59;95113.72;4969924;28;20047;-70
2021/07/26 05:34:27;;;;;;;6.20;5.00;;;;;;;23.92;59.14;95102.44;4969510;28;20563;-70
2021/07/26 05:36:53;;;;;;;5.82;5.32;;;;;;;24.10;58.84;95107.84;4970498;28;20035;-70
2021/07/26 05:39:19;;;;;;;5.00;4.32;;;;;;;24.24;58.69;95104.31;4972326;28;20134;-71
2021/07/26 05:41:44;;;;;;;8.43;4.53;;;;;;;24.29;58.19;95096.53;4986351;28;20463;-70
2021/07/26 05:44:10;;;;;;;9.90;5.15;;;;;;;24.39;57.63;95078.66;4988941;28;20655;-71
2021/07/26 05:46:36;;;;;;;6.93;5.00;;;;;;;24.58;57.52;95085.59;4989125;28;20580;-71
2021/07/26 05:49:01;;;;;;;6.18;4.60;;;;;;;24.75;56.94;95092.13;4989299;28;20101;-71
2021/07/26 05:51:26;;;;;;;4.80;4.40;;;;;;;24.78;56.77;95070.34;4991445;28;20029;-71
2021/07/26 05:53:52;;;;;;;4.72;4.40;;;;;;;25.04;55.92;95095.47;4988806;28;20121;-71
2021/07/26 05:56:17;;;;;;;6.07;4.82;;;;;;;25.11;56.11;95093.50;4989095;28;20726;-72
2021/07/26 05:58:48;;;;;;;5.05;4.53;;;;;;;25.17;55.78;95093.84;4989529;28;20181;-71
2021/07/26 06:03:46;;;;;;;5.28;4.80;;;;;;;25.09;55.58;95090.41;4979846;28;20037;-73
2021/07/26 06:06:11;;;;;;;5.03;4.22;;;;;;;25.19;55.42;95096.19;4989895;28;20031;-71
2021/07/26 06:08:36;;;;;;;5.45;4.15;;;;;;;25.24;55.61;95093.81;4989374;28;20507;-71
2021/07/26 06:11:02;;;;;;;7.18;4.40;;;;;;;25.24;54.83;95071.25;4978871;28;20057;-71
2021/07/26 06:13:29;;;;;;;5.00;4.50;;;;;;;25.39;54.78;95100.72;4969344;28;20644;-71
2021/07/26 06:15:54;;;;;;;5.50;3.92;;;;;;;25.55;54.53;95088.53;4970873;28;20045;-72
2021/07/26 06:18:20;;;;;;;5.00;4.38;;;;;;;25.63;54.04;95085.31;4990465;28;20122;-69
2021/07/26 06:20:45;;;;;;;5.43;4.80;;;;;;;25.67;53.89;95079.84;4972962;28;20038;-69
2021/07/26 06:23:11;;;;;;;5.05;4.63;;;;;;;25.61;53.59;95056.97;4980775;28;20035;-69
2021/07/26 06:25:36;;;;;;;5.40;4.43;;;;;;;25.61;53.74;95065.91;4988756;28;20043;-69
2021/07/26 06:28:01;;;;;;;4.68;4.28;;;;;;;25.84;52.90;95076.22;4988718;28;20038;-69
2021/07/26 06:30:28;;;;;;;4.72;4.28;;;;;;;26.04;53.04;95070.97;4990659;28;20058;-71
2021/07/26 06:32:53;;;;;;;5.07;4.68;;;;;;;26.30;52.48;95077.69;4995853;28;20038;-71
2021/07/26 06:35:20;;;;;;;4.63;4.22;;;;;;;26.53;52.01;95074.34;4999807;28;20454;-71
2021/07/26 06:37:45;;;;;;;4.50;4.20;;;;;;;26.82;51.03;95079.44;5008290;28;20117;-72
2021/07/26 06:40:11;;;;;;;5.05;3.97;;;;;;;27.20;50.45;95096.50;5005334;28;20564;-70
2021/07/26 06:42:37;;;;;;;4.70;4.30;;;;;;;27.60;50.10;95116.56;4989035;28;20230;-76
2021/07/26 06:45:03;;;;;;;4.60;4.18;;;;;;;27.85;49.50;95109.97;4988608;28;20053;-71
2021/07/26 06:47:28;;;;;;;4.18;3.78;;;;;;;27.86;47.50;95104.06;4994913;28;20551;-69
2021/07/26 06:49:54;;;;;;;4.43;4.10;;;;;;;28.03;47.83;95106.91;4969420;28;20055;-69
2021/07/26 06:52:19;;;;;;;5.47;3.35;;;;;;;28.13;47.78;95116.88;4973055;28;20052;-63
2021/07/26 06:54:44;;;;;;;4.22;3.88;;;;;;;28.16;47.26;95125.03;4990089;28;20054;-69
2021/07/26 06:57:10;;;;;;;4.05;3.78;;;;;;;28.35;47.59;95129.00;4969418;28;20057;-69
2021/07/26 06:59:35;;;;;;;4.35;4.03;;;;;;;28.47;47.26;95108.47;4984019;28;20496;-74
2021/07/26 07:02:00;;;;;;;4.20;3.90;;;;;;;28.62;46.43;95114.44;4988331;28;20065;-75
2021/07/26 07:04:26;;;;;;;3.92;3.53;;;;;;;28.83;46.52;95116.75;4987807;28;20047;-69
2021/07/26 07:06:51;;;;;;;6.05;4.03;;;;;;;28.90;46.39;95099.38;4989379;28;20483;-73
2021/07/26 07:09:16;;;;;;;4.18;3.33;;;;;;;29.13;45.51;95115.75;4975684;28;20121;-78
2021/07/26 07:11:42;;;;;;;3.58;3.28;;;;;;;28.93;45.11;95071.16;4989096;28;20126;-80
2021/07/26 07:14:07;;;;;;;7.40;3.90;;;;;;;29.22;44.29;95115.91;4990042;28;20038;-72
2021/07/26 07:16:33;;;;;;;3.45;3.22;;;;;;;29.10;44.42;95091.94;4992221;28;20128;-69
2021/07/26 07:18:58;;;;;;;5.18;3.42;;;;;;;29.16;44.71;95092.97;4991713;28;20027;-68
2021/07/26 07:21:25;;;;;;;3.55;3.30;;;;;;;28.98;44.42;95120.75;4993981;28;20452;-81
2021/07/26 07:23:52;;;;;;;3.60;3.22;;;;;;;28.99;45.36;95111.34;4975178;28;20109;-74
2021/07/26 07:26:19;;;;;;;4.15;3.85;;;;;;;28.70;43.56;95088.47;4972447;28;20034;-73
2021/07/26 07:28:45;;;;;;;3.05;2.85;;;;;;;28.81;43.44;95099.94;4980277;28;20043;-79
2021/07/26 07:31:10;;;;;;;3.75;3.45;;;;;;;28.89;43.58;95079.47;4992359;28;20037;-71
2021/07/26 07:33:36;;;;;;;3.65;3.33;;;;;;;28.05;44.26;95085.38;4993026;28;20053;-76
2021/07/26 07:36:06;;;;;;;5.75;3.35;;;;;;;28.45;44.07;95097.16;4991717;28;20100;-75
2021/07/26 07:38:32;;;;;;;4.45;3.20;;;;;;;28.84;44.42;95101.09;4977777;28;20038;-63
2021/07/26 07:40:58;;;;;;;5.57;3.65;;;;;;;28.81;43.17;95116.38;4981448;28;20096;-66
2021/07/26 07:43:28;;;;;;;3.53;3.22;;;;;;;29.04;42.90;95112.81;4991159;28;20039;-66
2021/07/26 07:45:58;;;;;;;4.65;3.78;;;;;;;28.35;43.99;95123.53;4991491;28;20030;-68
2021/07/26 07:48:24;;;;;;;5.63;4.22;;;;;;;28.73;43.04;95095.84;4992940;28;20042;-64
2021/07/26 07:50:53;;;;;;;4.15;3.30;;;;;;;28.77;42.98;95063.69;4991158;28;20041;-63
2021/07/26 07:53:19;;;;;;;4.28;3.53;;;;;;;29.33;42.08;95110.22;4990997;28;20042;-64
2021/07/26 07:55:45;;;;;;;4.72;3.53;;;;;;;29.35;40.50;95091.38;4983627;28;20031;-65
2021/07/26 07:58:10;;;;;;;4.40;3.58;;;;;;;27.43;44.24;95080.13;4975220;28;20468;-64
2021/07/26 08:00:36;;;;;;;4.43;3.63;;;;;;;27.62;43.43;95103.25;4993492;28;20384;-64
2021/07/26 08:03:01;;;;;;;3.58;3.38;;;;;;;27.99;42.67;95077.66;4993000;28;20048;-64
2021/07/26 08:05:30;;;;;;;5.13;3.30;;;;;;;28.15;42.88;95100.81;4994972;28;20429;-64
2021/07/26 08:07:56;;;;;;;6.45;3.78;;;;;;;28.19;43.46;95085.88;4991366;28;20133;-64
2021/07/26 08:10:22;;;;;;;3.72;3.38;;;;;;;27.96;43.32;95089.44;4989699;28;20121;-63
2021/07/26 08:12:47;;;;;;;4.50;3.28;;;;;;;28.05;44.52;95088.13;4990807;28;20049;-63
2021/07/26 08:15:12;;;;;;;4.55;3.10;;;;;;;28.18;44.25;95075.38;5008182;28;20019;-63
2021/07/26 08:17:43;;;;;;;4.05;3.47;;;;;;;28.60;42.43;95094.91;4989616;28;20050;-63
2021/07/26 08:20:14;;;;;;;5.82;4.00;;;;;;;28.50;43.16;95085.72;4990670;28;20034;-64
2021/07/26 08:22:40;;;;;;;3.92;3.42;;;;;;;28.39;43.87;95075.00;4990335;28;20034;-64
2021/07/26 08:25:07;;;;;;;3.75;3.45;;;;;;;27.93;45.06;95068.41;4990321;28;20733;-64
2021/07/26 08:27:53;;;;;;;5.38;4.03;;;;;;;28.81;42.92;95080.78;4992667;28;20527;-65
2021/07/26 08:30:23;;;;;;;4.97;3.45;;;;;;;28.42;42.60;95068.69;5006219;28;20045;-65
2021/07/26 08:32:49;;;;;;;4.80;3.95;;;;;;;28.76;42.30;95075.81;4989807;28;20038;-65
2021/07/26 08:35:14;;;;;;;4.00;3.70;;;;;;;28.19;42.11;95096.06;4978763;28;20055;-65
2021/07/26 08:37:40;;;;;;;5.47;3.47;;;;;;;28.36;41.88;95091.50;4978210;28;20034;-65
2021/07/26 08:40:06;;;;;;;4.00;3.50;;;;;;;28.68;41.47;95086.16;4990968;28;20180;-65
2021/07/26 08:42:32;;;;;;;4.10;3.53;;;;;;;27.76;42.90;95094.09;4991858;28;20038;-65
2021/07/26 08:44:58;;;;;;;3.97;3.50;;;;;;;27.86;42.87;95097.84;4987646;28;20041;-64
2021/07/26 08:47:27;;;;;;;3.95;3.10;;;;;;;28.03;42.95;95101.44;4970580;28;20043;-66
2021/07/26 08:49:58;;;;;;;5.07;3.53;;;;;;;27.96;42.95;95086.72;4974911;28;20054;-65
2021/07/26 08:52:25;;;;;;;3.47;3.20;;;;;;;28.56;42.09;95102.41;4975314;28;20096;-65
2021/07/26 08:54:54;;;;;;;4.28;3.45;;;;;;;28.48;41.92;95099.06;4990205;28;20391;-65
2021/07/26 08:57:20;;;;;;;3.10;2.90;;;;;;;28.76;41.50;95100.44;4990843;28;20384;-65
2021/07/26 08:59:46;;;;;;;4.93;3.15;;;;;;;29.03;41.53;95105.03;4974184;28;20035;-65
2021/07/26 09:02:11;;;;;;;3.40;3.10;;;;;;;29.12;41.26;95102.47;4981443;28;20031;-65
2021/07/26 09:04:37;;;;;;;4.13;3.70;;;;;;;29.52;40.68;95112.09;4983196;28;20051;-65
2021/07/26 09:07:06;;;;;;;3.90;3.55;;;;;;;29.69;39.79;95110.19;4970338;28;20031;-64
2021/07/26 09:09:45;;;;;;;3.55;3.03;;;;;;;28.23;41.69;95116.69;4972658;28;20114;-65
2021/07/26 09:12:31;;;;;;;3.75;3.42;;;;;;;27.88;43.08;95118.09;4968943;28;20444;-65
2021/07/26 09:14:56;;;;;;;5.38;3.05;;;;;;;27.77;43.58;95109.28;4987788;28;20631;-65
2021/07/26 09:17:22;;;;;;;3.72;3.20;;;;;;;27.47;44.02;95107.41;4976863;28;20027;-65
2021/07/26 09:19:58;;;;;;;3.83;3.22;;;;;;;27.57;43.71;95102.97;4978130;28;20492;-65
2021/07/26 09:22:32;;;;;;;4.07;3.67;;;;;;;26.98;44.80;95115.09;4989354;28;20082;-65
2021/07/26 09:25:20;;;;;;;3.60;3.30;;;;;;;27.10;45.07;95108.34;5004841;28;20034;-65
2021/07/26 09:28:07;;;;;;;3.95;3.50;;;;;;;26.78;44.49;95100.56;4991774;28;20380;-65
2021/07/26 09:30:47;;;;;;;3.67;3.38;;;;;;;26.40;45.80;95123.16;4989883;28;20052;-65
2021/07/26 09:33:28;;;;;;;4.53;3.55;;;;;;;25.91;46.17;95100.69;4988633;28;20528;-65
2021/07/26 09:36:12;;;;;;;3.50;3.20;;;;;;;26.23;46.53;95123.38;4972713;28;20046;-65
2021/07/26 09:38:37;;;;;;;3.08;2.83;;;;;;;26.23;46.02;95120.63;4984547;28;20566;-66
2021/07/26 09:41:05;;;;;;;5.53;2.78;;;;;;;26.36;46.58;95108.00;4979105;28;20058;-64
2021/07/26 09:43:31;;;;;;;3.20;3.00;;;;;;;26.88;44.83;95105.88;4969651;28;20038;-67
2021/07/26 09:45:56;;;;;;;3.50;3.30;;;;;;;27.44;44.61;95114.47;4971022;28;20034;-66
2021/07/26 09:48:30;;;;;;;4.03;3.60;;;;;;;27.54;43.50;95111.97;4994769;28;20029;-65
2021/07/26 09:50:58;;;;;;;3.55;3.20;;;;;;;27.09;45.29;95106.81;4973938;28;20053;-73
2021/07/26 09:53:25;;;;;;;3.53;3.20;;;;;;;26.55;45.98;95106.66;4994804;28;20399;-67
2021/07/26 09:55:51;;;;;;;3.67;3.38;;;;;;;26.92;45.52;95114.78;5023678;28;20428;-66
2021/07/26 09:58:18;;;;;;;3.83;3.47;;;;;;;26.85;43.71;95064.97;5009097;28;20107;-66
2021/07/26 10:00:45;;;;;;;4.40;3.35;;;;;;;25.87;46.64;95101.91;5010883;28;20105;-66
2021/07/26 10:03:15;;;;;;;4.35;3.70;;;;;;;25.84;46.98;95121.75;5015784;28;20070;-66
2021/07/26 10:05:41;;;;;;;4.20;3.75;;;;;;;26.82;44.66;95115.72;4974119;28;20093;-66
2021/07/26 10:08:08;;;;;;;5.10;3.78;;;;;;;26.30;45.75;95112.38;4980132;28;20038;-66
2021/07/26 10:10:35;;;;;;;5.18;3.28;;;;;;;26.15;45.60;95117.97;4988785;28;20043;-66
2021/07/26 10:13:05;;;;;;;4.07;2.92;;;;;;;27.07;44.39;95115.38;4988655;28;20030;-67
2021/07/26 10:15:31;;;;;;;3.25;2.97;;;;;;;26.72;45.41;95122.06;4991017;28;20109;-66
2021/07/26 10:17:58;;;;;;;3.20;3.00;;;;;;;27.02;43.08;95118.53;4987042;28;20042;-66
2021/07/26 10:20:26;;;;;;;3.28;2.97;;;;;;;27.86;42.43;95098.59;4988923;28;20408;-67
2021/07/26 10:22:55;;;;;;;4.03;3.63;;;;;;;27.55;41.96;95113.53;4988597;28;20497;-64
2021/07/26 10:25:34;;;;;;;4.20;3.22;;;;;;;28.32;42.30;95112.66;4989151;28;20070;-67
2021/07/26 10:28:02;;;;;;;3.58;3.28;;;;;;;27.37;43.12;95111.06;4989083;28;20772;-66
2021/07/26 10:30:37;;;;;;;5.63;3.53;;;;;;;26.98;43.46;95106.16;4990937;28;20038;-65
2021/07/26 10:33:04;;;;;;;3.88;3.50;;;;;;;26.48;45.89;95107.53;4988029;28;20050;-65
2021/07/26 10:35:37;;;;;;;4.00;3.70;;;;;;;26.68;45.23;95103.00;4988695;28;20492;-66
2021/07/26 10:38:04;;;;;;;4.03;3.42;;;;;;;26.55;45.15;95121.06;4989038;28;20054;-66
2021/07/26 10:40:31;;;;;;;4.07;3.67;;;;;;;26.47;46.26;95116.13;4989178;28;20043;-66
2021/07/26 10:43:01;;;;;;;3.90;3.60;;;;;;;26.33;45.59;95125.97;4991592;28;20049;-66
2021/07/26 10:45:32;;;;;;;4.63;3.53;;;;;;;26.99;45.24;95124.06;4994605;28;20089;-67
2021/07/26 10:48:16;;;;;;;;;;;;;;;27.37;43.81;95106.38;5009561;28;20093;-66
2021/07/26 10:50:44;;;;;;;4.63;4.15;;;;;;;26.58;44.57;95122.22;4995982;28;19918;-66
2021/07/26 10:53:09;;;;;;;3.97;3.67;;;;;;;26.14;45.91;95116.41;4992090;28;20069;-66
2021/07/26 10:56:05;;;;;;;4.55;3.50;;;;;;;26.31;46.35;95116.63;4992294;28;20058;-66
2021/07/26 10:58:39;;;;;;;3.30;3.05;;;;;;;27.26;43.64;95111.22;4992191;28;20451;-66
2021/07/26 11:01:19;;;;;;;3.63;3.28;;;;;;;27.30;43.60;95114.69;4992267;28;20027;-66
2021/07/26 11:03:45;;;;;;;3.67;3.45;;;;;;;27.84;43.42;95109.16;4993308;28;20038;-66
2021/07/26 11:06:31;;;;;;;3.78;3.40;;;;;;;27.54;42.64;95104.56;4992131;28;20064;-65
2021/07/26 11:08:56;;;;;;;5.40;4.20;;;;;;;27.68;43.10;95095.34;5007037;28;20472;-66
2021/07/26 11:11:40;;;;;;;3.20;2.95;;;;;;;27.65;43.31;95101.66;4992363;28;20034;-66
2021/07/26 11:14:05;;;;;;;4.28;3.63;;;;;;;27.23;42.98;95108.53;4991782;28;20038;-66
2021/07/26 11:16:49;;;;;;;3.60;3.30;;;;;;;28.30;41.92;95109.53;4992115;28;20064;-65
2021/07/26 11:19:33;;;;;;;4.03;3.63;;;;;;;28.23;40.89;95102.25;4987632;28;20058;-65
2021/07/26 11:21:58;;;;;;;4.57;3.70;;;;;;;28.67;40.52;95078.38;4973373;28;20031;-65
2021/07/26 11:24:51;;;;;;;5.32;4.07;;;;;;;29.00;40.33;95090.97;4993473;28;20029;-65
2021/07/26 11:27:37;;;;;;;5.72;4.07;;;;;;;29.33;39.92;95088.31;4989364;28;20042;-66
2021/07/26 11:30:04;;;;;;;3.97;3.67;;;;;;;29.63;39.26;95089.94;4990530;28;20185;-67
2021/07/26 11:32:30;;;;;;;4.43;4.03;;;;;;;29.66;38.72;95097.31;4991182;28;20038;-66
2021/07/26 11:35:00;;;;;;;4.10;3.80;;;;;;;29.97;38.54;95088.72;4992242;28;20043;-66
2021/07/26 11:37:29;;;;;;;3.92;3.38;;;;;;;30.33;38.58;95088.59;5004950;28;20049;-66